Time;durP1;ratioP1;P1;durP2;ratioP2;P2;SDS_P1;SDS_P2;PMS_P1;PMS_P2;Temp;Humidity;BMP_temperature;BMP_pressure;BME280_temperature;BME280_humidity;BME280_pressure;Samples;Min_cycle;Max_cycle;Signal;HPM_P1;HPM_P2
2022/07/16 00:03:22;;;;;;;;;;;8.90;99.90;;;;;;4975758;28;19965;-73
2022/07/16 00:05:49;;;;;;;;;;;9.00;99.90;;;;;;4974996;28;19922;-77
2022/07/16 00:08:16;;;;;;;;;;;9.10;99.90;;;;;;4975099;28;19959;-74
2022/07/16 00:10:42;;;;;;;;;;;9.20;99.90;;;;;;4975228;28;19922;-77
2022/07/16 00:13:09;;;;;;;;;;;9.30;99.90;;;;;;4974964;28;20058;-76
2022/07/16 00:15:36;;;;;;;;;;;9.30;99.90;;;;;;4974962;28;20280;-76
2022/07/16 00:20:47;;;;;;;;;;;9.40;99.90;;;;;;4977429;28;19938;-78
2022/07/16 00:23:14;;;;;;;;;;;9.40;99.90;;;;;;4974519;28;19918;-78
2022/07/16 00:25:40;;;;;;;;;;;9.50;99.90;;;;;;4974987;28;19964;-78
2022/07/16 00:28:07;;;;;;;;;;;9.50;99.90;;;;;;4975184;28;19914;-77
2022/07/16 00:30:34;;;;;;;;;;;9.60;99.90;;;;;;4974989;28;19949;-75
2022/07/16 00:33:01;;;;;;;;;;;9.80;99.90;;;;;;4974204;28;19956;-76
2022/07/16 00:35:27;;;;;;;;;;;9.90;99.90;;;;;;4974744;28;19918;-77
2022/07/16 00:37:54;;;;;;;;;;;9.90;99.90;;;;;;4974416;28;19945;-76
2022/07/16 00:40:21;;;;;;;;;;;10.10;99.90;;;;;;4974673;28;19910;-77
2022/07/16 00:42:48;;;;;;;;;;;10.10;99.90;;;;;;4974318;28;19910;-76
2022/07/16 00:45:14;;;;;;;;;;;10.20;99.90;;;;;;4974320;28;19956;-77
2022/07/16 00:47:41;;;;;;;;;;;10.30;99.90;;;;;;4974358;28;19910;-75
2022/07/16 00:50:08;;;;;;;;;;;10.40;99.90;;;;;;4974335;28;20280;-76
2022/07/16 00:52:35;;;;;;;;;;;10.60;99.90;;;;;;4974245;28;19917;-77
2022/07/16 00:55:03;;;;;;;;;;;10.60;99.90;;;;;;4974161;28;19918;-76
2022/07/16 00:57:29;;;;;;;;;;;10.60;99.90;;;;;;4974165;28;19917;-76
2022/07/16 00:59:56;;;;;;;;;;;10.70;99.90;;;;;;4974281;28;19910;-78
2022/07/16 01:02:23;;;;;;;;;;;10.80;99.90;;;;;;4974224;28;19917;-77
2022/07/16 01:04:49;;;;;;;;;;;11.00;99.90;;;;;;4973974;28;19929;-77
2022/07/16 01:07:17;;;;;;;;;;;11.10;99.90;;;;;;4974075;28;19946;-78
2022/07/16 01:09:43;;;;;;;;;;;11.20;99.90;;;;;;4973922;28;19910;-78
2022/07/16 01:12:10;;;;;;;;;;;11.40;99.90;;;;;;4973995;28;19910;-75
2022/07/16 01:14:37;;;;;;;;;;;11.40;99.90;;;;;;4974197;28;19985;-78
2022/07/16 01:17:04;;;;;;;;;;;11.50;99.90;;;;;;4973742;28;19910;-77
2022/07/16 01:19:31;;;;;;;;;;;11.50;99.90;;;;;;4973952;28;20269;-77
2022/07/16 01:21:57;;;;;;;;;;;11.50;99.90;;;;;;4974013;28;19957;-78
2022/07/16 01:24:24;;;;;;;;;;;11.50;99.90;;;;;;4973686;28;19957;-78
2022/07/16 01:26:51;;;;;;;;;;;11.50;99.90;;;;;;4973806;28;20332;-79
2022/07/16 01:29:17;;;;;;;;;;;11.60;99.90;;;;;;4970917;28;19916;-78
2022/07/16 01:31:44;;;;;;;;;;;11.70;99.90;;;;;;4971864;28;19910;-79
2022/07/16 01:34:26;;;;;;;;;;;11.70;99.90;;;;;;4971712;28;19918;-78
2022/07/16 01:36:54;;;;;;;;;;;11.70;99.90;;;;;;4971390;28;20288;-76
2022/07/16 01:39:21;;;;;;;;;;;11.80;99.90;;;;;;4971203;28;20237;-76
2022/07/16 01:41:51;;;;;;;;;;;11.80;99.90;;;;;;4970862;28;20282;-75
2022/07/16 01:44:18;;;;;;;;;;;11.80;99.90;;;;;;4970471;28;19910;-75
2022/07/16 01:46:45;;;;;;;;;;;11.80;99.90;;;;;;4971339;28;19974;-77
2022/07/16 01:49:11;;;;;;;;;;;11.90;99.90;;;;;;4971459;28;19914;-77
2022/07/16 01:51:39;;;;;;;;;;;12.10;99.90;;;;;;4971567;28;20249;-76
2022/07/16 01:54:06;;;;;;;;;;;12.20;99.90;;;;;;4970727;28;19918;-77
2022/07/16 01:56:32;;;;;;;;;;;12.20;99.90;;;;;;4971144;28;19910;-76
2022/07/16 01:58:59;;;;;;;;;;;12.30;99.90;;;;;;4971042;28;20013;-74
2022/07/16 02:01:27;;;;;;;;;;;12.30;99.90;;;;;;4971175;28;19957;-73
2022/07/16 02:03:54;;;;;;;;;;;12.40;99.90;;;;;;4971308;28;19911;-73
2022/07/16 02:06:20;;;;;;;;;;;12.40;99.90;;;;;;4971272;28;20431;-74
2022/07/16 02:08:47;;;;;;;;;;;12.40;99.90;;;;;;4971197;28;20028;-73
2022/07/16 02:11:14;;;;;;;;;;;12.40;99.90;;;;;;4971025;28;19937;-75
2022/07/16 02:13:42;;;;;;;;;;;12.40;99.90;;;;;;4971247;28;19965;-77
2022/07/16 02:16:09;;;;;;;;;;;12.30;99.90;;;;;;4971313;28;19913;-73
2022/07/16 02:18:36;;;;;;;;;;;12.40;99.90;;;;;;4971462;28;19915;-73
2022/07/16 02:21:03;;;;;;;;;;;12.40;99.90;;;;;;4970616;28;20312;-76
2022/07/16 02:23:30;;;;;;;;;;;12.40;99.90;;;;;;4970959;28;19914;-77
2022/07/16 02:25:56;;;;;;;;;;;12.50;99.90;;;;;;4971206;28;20351;-76
2022/07/16 02:28:23;;;;;;;;;;;12.60;99.90;;;;;;4971451;28;19969;-76
2022/07/16 02:30:51;;;;;;;;;;;12.60;99.90;;;;;;4971289;28;19921;-76
2022/07/16 02:33:19;;;;;;;;;;;12.60;99.90;;;;;;4970884;28;19969;-77
2022/07/16 02:35:46;;;;;;;;;;;12.70;99.90;;;;;;4971034;28;19974;-76
2022/07/16 02:38:13;;;;;;;;;;;12.60;99.90;;;;;;4971088;28;19957;-77
2022/07/16 02:40:40;;;;;;;;;;;12.70;99.90;;;;;;4971162;28;19910;-77
2022/07/16 02:43:08;;;;;;;;;;;12.70;99.90;;;;;;4970976;28;19969;-78
2022/07/16 02:45:37;;;;;;;;;;;12.80;99.90;;;;;;4971133;28;20425;-77
2022/07/16 02:48:04;;;;;;;;;;;12.90;99.90;;;;;;4970954;28;19910;-77
2022/07/16 02:50:31;;;;;;;;;;;12.90;99.90;;;;;;4971193;28;19910;-76
2022/07/16 02:52:57;;;;;;;;;;;12.80;99.90;;;;;;4970619;28;19911;-74
2022/07/16 02:55:25;;;;;;;;;;;12.80;99.90;;;;;;4972634;28;20026;-75
2022/07/16 02:57:51;;;;;;;;;;;12.70;99.90;;;;;;4974512;28;19984;-76
2022/07/16 03:00:18;;;;;;;;;;;12.70;99.90;;;;;;4988724;28;19914;-76
2022/07/16 03:02:45;;;;;;;;;;;12.70;99.90;;;;;;4994804;28;19918;-76
2022/07/16 03:05:13;;;;;;;;;;;12.70;99.90;;;;;;4994397;28;19934;-76
2022/07/16 03:07:39;;;;;;;;;;;12.70;99.90;;;;;;4994376;28;19914;-77
2022/07/16 03:10:07;;;;;;;;;;;12.70;99.90;;;;;;4994606;28;20451;-75
2022/07/16 03:12:34;;;;;;;;;;;12.80;99.90;;;;;;4994144;28;19968;-77
2022/07/16 03:15:03;;;;;;;;;;;12.90;99.90;;;;;;4994099;28;19972;-75
2022/07/16 03:17:30;;;;;;;;;;;12.80;99.90;;;;;;4988437;28;19914;-76
2022/07/16 03:19:57;;;;;;;;;;;12.90;99.90;;;;;;4982720;28;19914;-76
2022/07/16 03:22:24;;;;;;;;;;;12.80;99.90;;;;;;4974128;28;20360;-76
2022/07/16 03:24:50;;;;;;;;;;;12.90;99.90;;;;;;4974101;28;19914;-75
2022/07/16 03:27:17;;;;;;;;;;;12.90;99.90;;;;;;4974073;28;19914;-75
2022/07/16 03:29:44;;;;;;;;;;;12.80;99.90;;;;;;4973432;28;19911;-75
2022/07/16 03:32:10;;;;;;;;;;;12.80;99.90;;;;;;4973982;28;20796;-77
2022/07/16 03:34:37;;;;;;;;;;;12.80;99.90;;;;;;4973861;28;19926;-76
2022/07/16 03:37:04;;;;;;;;;;;12.70;99.90;;;;;;4973555;28;19942;-76
2022/07/16 03:39:30;;;;;;;;;;;12.70;99.90;;;;;;4973818;28;20451;-76
2022/07/16 03:41:57;;;;;;;;;;;12.60;99.90;;;;;;4973645;28;20417;-75
2022/07/16 03:44:24;;;;;;;;;;;12.60;99.90;;;;;;4973390;28;19916;-75
2022/07/16 03:46:51;;;;;;;;;;;12.70;99.90;;;;;;4973844;28;19910;-75
2022/07/16 03:49:17;;;;;;;;;;;12.90;99.90;;;;;;4973471;28;20004;-76
2022/07/16 03:51:44;;;;;;;;;;;13.00;99.90;;;;;;4973611;28;19914;-73
2022/07/16 03:54:11;;;;;;;;;;;13.10;99.90;;;;;;4973404;28;19953;-72
2022/07/16 03:56:38;;;;;;;;;;;13.20;99.90;;;;;;4973060;28;19910;-75
2022/07/16 03:59:04;;;;;;;;;;;13.20;99.90;;;;;;4973238;28;19914;-75
2022/07/16 04:01:31;;;;;;;;;;;13.20;99.90;;;;;;4973273;28;19914;-74
2022/07/16 04:03:58;;;;;;;;;;;13.10;99.90;;;;;;4973093;28;19911;-74
2022/07/16 04:06:24;;;;;;;;;;;13.10;99.90;;;;;;4972438;28;20262;-76
2022/07/16 04:08:51;;;;;;;;;;;13.00;99.90;;;;;;4973050;28;19910;-74
2022/07/16 04:11:18;;;;;;;;;;;13.00;99.90;;;;;;4972834;28;20546;-74
2022/07/16 04:13:44;;;;;;;;;;;13.00;99.90;;;;;;4972778;28;19949;-76
2022/07/16 04:16:11;;;;;;;;;;;12.90;99.90;;;;;;4972849;28;19910;-75
2022/07/16 04:18:38;;;;;;;;;;;13.00;99.90;;;;;;4972708;28;19950;-75
2022/07/16 04:21:05;;;;;;;;;;;13.00;99.90;;;;;;4972498;28;19998;-76
2022/07/16 04:23:32;;;;;;;;;;;13.00;99.90;;;;;;4972425;28;20328;-75
2022/07/16 04:25:59;;;;;;;;;;;13.10;99.90;;;;;;4972863;28;19910;-74
2022/07/16 04:28:26;;;;;;;;;;;13.20;99.90;;;;;;4973253;28;19921;-76
2022/07/16 04:30:53;;;;;;;;;;;13.30;99.90;;;;;;4972787;28;19922;-75
2022/07/16 04:33:19;;;;;;;;;;;13.30;99.90;;;;;;4972888;28;19988;-75
2022/07/16 04:35:48;;;;;;;;;;;13.50;99.90;;;;;;4972173;28;20100;-75
2022/07/16 04:38:16;;;;;;;;;;;13.60;99.90;;;;;;4972679;28;19964;-76
2022/07/16 04:40:42;;;;;;;;;;;13.50;99.90;;;;;;4972494;28;19910;-76
2022/07/16 04:43:09;;;;;;;;;;;13.60;99.90;;;;;;4972441;28;20000;-75
2022/07/16 04:45:36;;;;;;;;;;;13.50;99.90;;;;;;4972377;28;19910;-75
2022/07/16 04:48:03;;;;;;;;;;;13.50;99.90;;;;;;4972254;28;19914;-75
2022/07/16 04:50:30;;;;;;;;;;;13.40;99.90;;;;;;4972256;28;19910;-76
2022/07/16 04:52:57;;;;;;;;;;;13.40;99.90;;;;;;4972103;28;19918;-75
2022/07/16 04:55:23;;;;;;;;;;;13.50;99.90;;;;;;4972202;28;19926;-74
2022/07/16 04:57:50;;;;;;;;;;;13.60;99.90;;;;;;4972043;28;19914;-75
2022/07/16 05:00:17;;;;;;;;;;;13.60;99.90;;;;;;4972248;28;19914;-73
2022/07/16 05:02:58;;;;;;;;;;;13.60;99.90;;;;;;4971730;28;20316;-74
2022/07/16 05:05:30;;;;;;;;;;;13.60;99.90;;;;;;4972095;28;19922;-75
2022/07/16 05:07:56;;;;;;;;;;;13.50;99.90;;;;;;4971959;28;19914;-74
2022/07/16 05:10:24;;;;;;;;;;;13.70;99.90;;;;;;4972156;28;20619;-71
2022/07/16 05:12:51;;;;;;;;;;;13.80;99.90;;;;;;4971887;28;20010;-72
2022/07/16 05:15:18;;;;;;;;;;;13.80;99.90;;;;;;4971733;28;19922;-74
2022/07/16 05:17:44;;;;;;;;;;;13.80;99.90;;;;;;4971754;28;19922;-73
2022/07/16 05:20:11;;;;;;;;;;;13.80;99.90;;;;;;4971867;28;19964;-74
2022/07/16 05:22:38;;;;;;;;;;;13.80;99.90;;;;;;4971964;28;19985;-74
2022/07/16 05:25:05;;;;;;;;;;;13.70;99.90;;;;;;4971971;28;19961;-76
2022/07/16 05:27:32;;;;;;;;;;;13.70;99.90;;;;;;4971523;28;19914;-75
2022/07/16 05:29:59;;;;;;;;;;;13.60;99.90;;;;;;4971929;28;19968;-74
2022/07/16 05:32:26;;;;;;;;;;;13.50;99.90;;;;;;4971790;28;20369;-74
2022/07/16 05:34:52;;;;;;;;;;;13.40;99.90;;;;;;4986249;28;19918;-75
2022/07/16 05:37:19;;;;;;;;;;;13.40;99.90;;;;;;4971568;28;20335;-75
2022/07/16 05:39:46;;;;;;;;;;;13.40;99.90;;;;;;4954427;28;19917;-76
2022/07/16 05:42:12;;;;;;;;;;;13.40;99.90;;;;;;4971479;28;19914;-74
2022/07/16 05:44:39;;;;;;;;;;;13.30;99.90;;;;;;4971911;28;19934;-75
2022/07/16 05:47:06;;;;;;;;;;;13.30;99.90;;;;;;4971425;28;19914;-76
2022/07/16 05:49:33;;;;;;;;;;;13.20;99.90;;;;;;4971662;28;19910;-73
2022/07/16 05:52:00;;;;;;;;;;;13.20;99.90;;;;;;4971490;28;20005;-74
2022/07/16 05:54:27;;;;;;;;;;;13.10;99.90;;;;;;4971279;28;20655;-73
2022/07/16 05:56:54;;;;;;;;;;;13.10;99.90;;;;;;4971421;28;20361;-75
2022/07/16 05:59:20;;;;;;;;;;;13.10;99.90;;;;;;4971608;28;19910;-74
2022/07/16 06:01:47;;;;;;;;;;;13.10;99.90;;;;;;4971397;28;19937;-73
2022/07/16 06:04:14;;;;;;;;;;;13.00;99.90;;;;;;4971410;28;19910;-73
2022/07/16 06:06:40;;;;;;;;;;;13.00;99.90;;;;;;4970973;28;19961;-73
2022/07/16 06:09:07;;;;;;;;;;;13.00;99.90;;;;;;4970907;28;20288;-73
2022/07/16 06:11:34;;;;;;;;;;;13.00;99.90;;;;;;4972424;28;19922;-73
2022/07/16 06:14:00;;;;;;;;;;;13.00;99.90;;;;;;4991265;28;19921;-74
2022/07/16 06:16:27;;;;;;;;;;;13.00;99.90;;;;;;4991264;28;19921;-74
2022/07/16 06:18:54;;;;;;;;;;;12.90;99.90;;;;;;4991231;28;19922;-73
2022/07/16 06:21:21;;;;;;;;;;;12.90;99.90;;;;;;4990966;28;19965;-73
2022/07/16 06:23:47;;;;;;;;;;;12.80;99.90;;;;;;4993242;28;19914;-74
2022/07/16 06:26:14;;;;;;;;;;;12.90;99.90;;;;;;4993293;28;20258;-72
2022/07/16 06:28:41;;;;;;;;;;;12.90;99.90;;;;;;4993432;28;19910;-72
2022/07/16 06:31:07;;;;;;;;;;;12.80;99.90;;;;;;4996035;28;19961;-74
2022/07/16 06:33:34;;;;;;;;;;;12.80;99.90;;;;;;4996976;28;19914;-74
2022/07/16 06:36:01;;;;;;;;;;;12.80;99.90;;;;;;4996712;28;19940;-74
2022/07/16 06:38:27;;;;;;;;;;;12.70;99.90;;;;;;4996900;28;19933;-74
2022/07/16 06:40:54;;;;;;;;;;;12.70;99.90;;;;;;4996683;28;19910;-73
2022/07/16 06:43:21;;;;;;;;;;;12.80;99.90;;;;;;4996935;28;19910;-73
2022/07/16 06:45:48;;;;;;;;;;;12.70;99.90;;;;;;4996864;28;19962;-73
2022/07/16 06:48:14;;;;;;;;;;;12.70;99.90;;;;;;4996662;28;20334;-73
2022/07/16 06:50:41;;;;;;;;;;;12.70;99.90;;;;;;4996680;28;19963;-74
2022/07/16 06:53:08;;;;;;;;;;;12.70;99.90;;;;;;4996252;28;19917;-73
2022/07/16 06:55:34;;;;;;;;;;;12.60;99.90;;;;;;4996568;28;20439;-73
2022/07/16 06:58:01;;;;;;;;;;;12.60;99.90;;;;;;4996525;28;19910;-72
2022/07/16 07:00:28;;;;;;;;;;;12.50;99.90;;;;;;4996382;28;19916;-73
2022/07/16 07:02:55;;;;;;;;;;;12.50;99.90;;;;;;4996240;28;20348;-73
2022/07/16 07:05:21;;;;;;;;;;;12.40;99.90;;;;;;4996155;28;19974;-74
2022/07/16 07:07:48;;;;;;;;;;;12.40;99.90;;;;;;4996365;28;20349;-74
2022/07/16 07:10:15;;;;;;;;;;;12.50;99.90;;;;;;4996152;28;19914;-74
2022/07/16 07:12:42;;;;;;;;;;;12.50;99.90;;;;;;4994912;28;19949;-72
2022/07/16 07:15:09;;;;;;;;;;;12.50;99.90;;;;;;5007493;28;19922;-71
2022/07/16 07:17:36;;;;;;;;;;;12.50;99.90;;;;;;4994952;28;19953;-72
2022/07/16 07:20:05;;;;;;;;;;;12.50;99.90;;;;;;4995976;28;19913;-73
2022/07/16 07:22:32;;;;;;;;;;;12.40;99.90;;;;;;4995831;28;19910;-73
2022/07/16 07:24:59;;;;;;;;;;;12.40;99.90;;;;;;4995184;28;20376;-73
2022/07/16 07:27:26;;;;;;;;;;;12.40;99.90;;;;;;4996142;28;19949;-71
2022/07/16 07:29:52;;;;;;;;;;;12.40;99.90;;;;;;4996003;28;19910;-72
2022/07/16 07:32:19;;;;;;;;;;;12.30;99.90;;;;;;4996056;28;19977;-72
2022/07/16 07:34:46;;;;;;;;;;;12.20;99.90;;;;;;4993803;28;19922;-72
2022/07/16 07:37:13;;;;;;;;;;;12.20;99.90;;;;;;4995445;28;19910;-72
2022/07/16 07:39:39;;;;;;;;;;;12.30;99.90;;;;;;4995491;28;20040;-73
2022/07/16 07:42:06;;;;;;;;;;;12.30;99.90;;;;;;4995380;28;20053;-72
2022/07/16 07:44:33;;;;;;;;;;;12.20;99.90;;;;;;4994359;28;19920;-74
2022/07/16 07:46:59;;;;;;;;;;;12.20;99.90;;;;;;4995383;28;19913;-73
2022/07/16 07:49:27;;;;;;;;;;;12.20;99.90;;;;;;4993016;28;19914;-72
2022/07/16 07:51:54;;;;;;;;;;;12.20;99.90;;;;;;4993583;28;20000;-73
2022/07/16 07:54:21;;;;;;;;;;;12.20;99.90;;;;;;4992691;28;20021;-73
2022/07/16 07:56:49;;;;;;;;;;;12.20;99.90;;;;;;4993190;28;19917;-72
2022/07/16 07:59:16;;;;;;;;;;;12.20;99.90;;;;;;4992434;28;20449;-72
2022/07/16 08:01:43;;;;;;;;;;;12.20;99.90;;;;;;4992790;28;20360;-73
2022/07/16 08:04:09;;;;;;;;;;;12.20;99.90;;;;;;4992336;28;19925;-72
2022/07/16 08:06:36;;;;;;;;;;;12.20;99.90;;;;;;4993023;28;19924;-74
2022/07/16 08:09:03;;;;;;;;;;;12.20;99.90;;;;;;4992964;28;19909;-72
2022/07/16 08:11:30;;;;;;;;;;;12.20;99.90;;;;;;4992964;28;19909;-72
2022/07/16 08:13:57;;;;;;;;;;;12.30;99.90;;;;;;4991498;28;19977;-72
2022/07/16 08:16:24;;;;;;;;;;;12.60;99.90;;;;;;4993005;28;20016;-72
2022/07/16 08:18:50;;;;;;;;;;;12.60;99.90;;;;;;4993027;28;19910;-72
2022/07/16 08:21:18;;;;;;;;;;;12.70;99.90;;;;;;4992907;28;20479;-72
2022/07/16 08:26:30;;;;;;;;;;;12.70;99.90;;;;;;4993054;28;19968;-72
2022/07/16 08:28:56;;;;;;;;;;;12.70;99.90;;;;;;4992114;28;19910;-72
2022/07/16 08:31:23;;;;;;;;;;;12.70;99.90;;;;;;4992969;28;20280;-71
2022/07/16 08:33:50;;;;;;;;;;;12.70;99.90;;;;;;4992102;28;19940;-72
2022/07/16 08:36:16;;;;;;;;;;;12.80;99.90;;;;;;4992659;28;20353;-71
2022/07/16 08:38:43;;;;;;;;;;;12.80;99.90;;;;;;4992668;28;19916;-71
2022/07/16 08:41:10;;;;;;;;;;;12.80;99.90;;;;;;4991990;28;19910;-72
2022/07/16 08:43:38;;;;;;;;;;;12.80;99.90;;;;;;4992026;28;19917;-72
2022/07/16 08:46:05;;;;;;;;;;;12.80;99.90;;;;;;4992499;28;19933;-71
2022/07/16 08:48:32;;;;;;;;;;;12.80;99.90;;;;;;4974921;28;20435;-72
2022/07/16 08:51:01;;;;;;;;;;;12.80;99.90;;;;;;4992066;28;19914;-72
2022/07/16 08:53:30;;;;;;;;;;;12.80;99.90;;;;;;4990947;28;19917;-71
2022/07/16 08:55:57;;;;;;;;;;;12.80;99.90;;;;;;4992356;28;19921;-71
2022/07/16 08:58:24;;;;;;;;;;;12.80;99.90;;;;;;4992332;28;20271;-72
2022/07/16 09:00:51;;;;;;;;;;;12.80;99.90;;;;;;4992111;28;20025;-73
2022/07/16 09:03:18;;;;;;;;;;;12.90;99.90;;;;;;4992030;28;20276;-72
2022/07/16 09:05:45;;;;;;;;;;;12.90;99.90;;;;;;4992725;28;19965;-71
2022/07/16 09:08:11;;;;;;;;;;;12.90;99.90;;;;;;4994303;28;19910;-71
2022/07/16 09:10:38;;;;;;;;;;;12.90;99.90;;;;;;4994264;28;19910;-72
2022/07/16 09:13:05;;;;;;;;;;;12.90;99.90;;;;;;4993736;28;20009;-72
2022/07/16 09:15:32;;;;;;;;;;;12.90;99.90;;;;;;5011669;28;19967;-71
2022/07/16 09:18:12;;;;;;;;;;;12.90;99.90;;;;;;5013766;28;19933;-73
2022/07/16 09:20:41;;;;;;;;;;;12.90;99.90;;;;;;5013400;28;19910;-73
2022/07/16 09:23:18;;;;;;;;;;;12.80;99.90;;;;;;5013317;28;20264;-72
2022/07/16 09:25:53;;;;;;;;;;;12.90;99.90;;;;;;4986180;28;20392;-73
2022/07/16 09:28:20;;;;;;;;;;;12.90;99.90;;;;;;5012909;28;20364;-72
2022/07/16 09:30:47;;;;;;;;;;;12.90;99.90;;;;;;5028430;28;19913;-72
2022/07/16 09:33:15;;;;;;;;;;;13.00;99.90;;;;;;5013169;28;20282;-72
2022/07/16 09:35:43;;;;;;;;;;;13.10;99.90;;;;;;5012594;28;20371;-72
2022/07/16 09:38:10;;;;;;;;;;;13.20;99.90;;;;;;5013290;28;19910;-72
2022/07/16 09:40:37;;;;;;;;;;;13.20;99.90;;;;;;5013369;28;19925;-71
2022/07/16 09:43:05;;;;;;;;;;;13.20;99.90;;;;;;5013034;28;20336;-71
2022/07/16 09:45:31;;;;;;;;;;;13.20;99.70;;;;;;5012773;28;19972;-72
2022/07/16 09:47:59;;;;;;;;;;;13.20;99.70;;;;;;5013163;28;19910;-71
2022/07/16 09:50:34;;;;;;;;;;;13.20;99.90;;;;;;5012936;28;19917;-72
2022/07/16 09:53:13;;;;;;;;;;;13.20;99.90;;;;;;5012957;28;19933;-72
2022/07/16 09:55:56;;;;;;;;;;;13.30;99.50;;;;;;5012466;28;20008;-72
2022/07/16 09:58:22;;;;;;;;;;;13.30;99.40;;;;;;5013133;28;19928;-72
2022/07/16 10:00:49;;;;;;;;;;;13.40;98.50;;;;;;5013075;28;20387;-72
2022/07/16 10:03:16;;;;;;;;;;;13.40;98.70;;;;;;5012827;28;19909;-72
2022/07/16 10:05:43;;;;;;;;;;;13.50;98.30;;;;;;5014402;28;19925;-70
2022/07/16 10:08:09;;;;;;;;;;;13.50;97.50;;;;;;5017138;28;19944;-71
2022/07/16 10:10:36;;;;;;;;;;;13.50;98.20;;;;;;5016940;28;19964;-72
2022/07/16 10:13:03;;;;;;;;;;;13.50;97.40;;;;;;5016788;28;19955;-72
2022/07/16 10:15:30;;;;;;;;;;;13.50;97.80;;;;;;5016314;28;20052;-72
2022/07/16 10:17:57;;;;;;;;;;;13.50;98.40;;;;;;5016952;28;19936;-72
2022/07/16 10:20:24;;;;;;;;;;;13.40;97.40;;;;;;5016598;28;19916;-72
2022/07/16 10:22:51;;;;;;;;;;;13.40;98.10;;;;;;5016881;28;20001;-71
2022/07/16 10:25:20;;;;;;;;;;;13.40;98.10;;;;;;5016091;28;19933;-70
2022/07/16 10:27:46;;;;;;;;;;;13.40;98.20;;;;;;5016670;28;19913;-73
2022/07/16 10:30:34;;;;;;;;;;;13.40;97.70;;;;;;5016479;28;19909;-72
2022/07/16 10:33:03;;;;;;;;;;;13.40;97.50;;;;;;5016238;28;19991;-72
2022/07/16 10:35:32;;;;;;;;;;;13.40;98.60;;;;;;5015708;28;19921;-73
2022/07/16 10:38:18;;;;;;;;;;;13.30;99.00;;;;;;5016589;28;19910;-73
2022/07/16 10:40:45;;;;;;;;;;;13.40;98.40;;;;;;5016634;28;20314;-72
2022/07/16 10:43:14;;;;;;;;;;;13.30;99.20;;;;;;5016525;28;19909;-73
2022/07/16 10:46:00;;;;;;;;;;;13.30;99.20;;;;;;5016094;28;19924;-72
2022/07/16 10:48:29;;;;;;;;;;;13.20;99.40;;;;;;5016530;28;19921;-73
2022/07/16 10:51:14;;;;;;;;;;;13.10;99.50;;;;;;5016134;28;19910;-73
2022/07/16 10:54:01;;;;;;;;;;;13.10;99.90;;;;;;5016401;28;19921;-73
2022/07/16 10:56:35;;;;;;;;;;;13.10;99.90;;;;;;5016618;28;19921;-72
2022/07/16 10:59:08;;;;;;;;;;;13.00;99.80;;;;;;5016389;28;19953;-72
2022/07/16 11:01:35;;;;;;;;;;;13.00;99.90;;;;;;5016621;28;19910;-73
2022/07/16 11:04:03;;;;;;;;;;;13.00;99.90;;;;;;5016314;28;19909;-72
2022/07/16 11:06:30;;;;;;;;;;;13.00;99.90;;;;;;5016455;28;19921;-73
2022/07/16 11:08:57;;;;;;;;;;;12.90;99.90;;;;;;5016120;28;19971;-73
2022/07/16 11:11:30;;;;;;;;;;;12.90;99.90;;;;;;5016343;28;19917;-72
2022/07/16 11:13:57;;;;;;;;;;;12.90;99.90;;;;;;5016269;28;19913;-73
2022/07/16 11:16:25;;;;;;;;;;;12.90;99.90;;;;;;5015860;28;20278;-73
2022/07/16 11:18:52;;;;;;;;;;;12.90;99.90;;;;;;5016160;28;19910;-72
2022/07/16 11:21:18;;;;;;;;;;;12.90;99.90;;;;;;5016008;28;19916;-72
2022/07/16 11:23:59;;;;;;;;;;;12.90;99.90;;;;;;5016141;28;20003;-72
2022/07/16 11:26:26;;;;;;;;;;;12.90;99.90;;;;;;5016097;28;19917;-73
2022/07/16 11:28:58;;;;;;;;;;;12.80;99.90;;;;;;5015879;28;19917;-73
2022/07/16 11:31:35;;;;;;;;;;;12.90;99.90;;;;;;5015973;28;19909;-72
2022/07/16 11:34:09;;;;;;;;;;;12.90;99.90;;;;;;5015908;28;19991;-72
2022/07/16 11:36:38;;;;;;;;;;;12.90;99.90;;;;;;4998228;28;19916;-71
2022/07/16 11:39:06;;;;;;;;;;;12.90;99.90;;;;;;4998115;28;19917;-73
2022/07/16 11:41:34;;;;;;;;;;;12.90;99.90;;;;;;5015826;28;19910;-72
2022/07/16 11:44:17;;;;;;;;;;;12.90;99.90;;;;;;5015749;28;20272;-72
2022/07/16 11:46:46;;;;;;;;;;;12.90;99.90;;;;;;5015738;28;20392;-72
2022/07/16 11:49:23;;;;;;;;;;;12.90;99.90;;;;;;5015406;28;20288;-72
2022/07/16 11:51:49;;;;;;;;;;;12.80;99.90;;;;;;5015818;28;20327;-73
2022/07/16 11:54:17;;;;;;;;;;;12.70;99.90;;;;;;5015430;28;20387;-73
2022/07/16 11:56:43;;;;;;;;;;;12.70;99.90;;;;;;5015318;28;19909;-73
2022/07/16 11:59:16;;;;;;;;;;;12.70;99.90;;;;;;5015201;28;20275;-73
2022/07/16 12:01:43;;;;;;;;;;;12.70;99.90;;;;;;5015180;28;19992;-72
2022/07/16 12:04:09;;;;;;;;;;;12.60;99.90;;;;;;5014975;28;19915;-72
2022/07/16 12:06:36;;;;;;;;;;;12.60;99.90;;;;;;5015285;28;19980;-73
2022/07/16 12:09:04;;;;;;;;;;;12.50;99.90;;;;;;5014973;28;19913;-72
2022/07/16 12:11:32;;;;;;;;;;;12.60;99.90;;;;;;5015208;28;20326;-73
2022/07/16 12:14:00;;;;;;;;;;;12.50;99.90;;;;;;5015083;28;19932;-74
2022/07/16 12:16:27;;;;;;;;;;;12.40;99.90;;;;;;5015108;28;19914;-73
2022/07/16 12:19:03;;;;;;;;;;;12.40;99.90;;;;;;5014936;28;20371;-72
2022/07/16 12:21:32;;;;;;;;;;;12.40;99.90;;;;;;5015093;28;20379;-73
2022/07/16 12:23:59;;;;;;;;;;;12.30;99.90;;;;;;5015051;28;19910;-72
2022/07/16 12:26:32;;;;;;;;;;;12.30;99.90;;;;;;5014842;28;19910;-71
2022/07/16 12:28:59;;;;;;;;;;;12.20;99.90;;;;;;5013883;28;20007;-73
2022/07/16 12:31:27;;;;;;;;;;;12.20;99.90;;;;;;5014946;28;19910;-72
2022/07/16 12:33:54;;;;;;;;;;;12.20;99.90;;;;;;5014805;28;19910;-72
2022/07/16 12:36:28;;;;;;;;;;;12.20;99.90;;;;;;5014585;28;19918;-74
2022/07/16 12:38:59;;;;;;;;;;;12.10;99.90;;;;;;5014506;28;20360;-72
2022/07/16 12:41:28;;;;;;;;;;;12.10;99.90;;;;;;5014770;28;19917;-73
2022/07/16 12:43:56;;;;;;;;;;;12.10;99.90;;;;;;5014626;28;19941;-73
2022/07/16 12:46:24;;;;;;;;;;;12.10;99.90;;;;;;5014543;28;19963;-73
2022/07/16 12:48:52;;;;;;;;;;;12.00;99.90;;;;;;5014513;28;20371;-73
2022/07/16 12:51:20;;;;;;;;;;;11.90;99.90;;;;;;5014309;28;19909;-73
2022/07/16 12:53:47;;;;;;;;;;;11.90;99.90;;;;;;5014494;28;19964;-72
2022/07/16 12:58:59;;;;;;;;;;;11.80;99.90;;;;;;5014273;28;19916;-73
2022/07/16 13:01:27;;;;;;;;;;;11.80;99.90;;;;;;5014289;28;19968;-73
2022/07/16 13:03:54;;;;;;;;;;;11.80;99.90;;;;;;5014148;28;19913;-73
2022/07/16 13:06:21;;;;;;;;;;;11.90;99.90;;;;;;5014142;28;19922;-73
2022/07/16 13:08:49;;;;;;;;;;;12.00;99.90;;;;;;5014201;28;19914;-73
2022/07/16 13:11:19;;;;;;;;;;;12.00;99.90;;;;;;5014157;28;19910;-71
2022/07/16 13:13:47;;;;;;;;;;;12.00;99.90;;;;;;5014098;28;20253;-73
2022/07/16 13:16:14;;;;;;;;;;;11.90;99.90;;;;;;5014058;28;19964;-73
2022/07/16 13:18:41;;;;;;;;;;;11.90;99.90;;;;;;5014019;28;20268;-72
2022/07/16 13:21:07;;;;;;;;;;;11.90;99.90;;;;;;5013689;28;19933;-72
2022/07/16 13:23:35;;;;;;;;;;;11.90;99.90;;;;;;5014008;28;19909;-73
2022/07/16 13:26:02;;;;;;;;;;;11.80;99.90;;;;;;5013902;28;19916;-73
2022/07/16 13:28:29;;;;;;;;;;;11.90;99.90;;;;;;5013965;28;19995;-72
2022/07/16 13:30:56;;;;;;;;;;;11.80;99.90;;;;;;5013597;28;19910;-72
2022/07/16 13:33:23;;;;;;;;;;;11.70;99.90;;;;;;5013920;28;20012;-73
2022/07/16 13:35:50;;;;;;;;;;;11.70;99.90;;;;;;5013635;28;20012;-73
2022/07/16 13:38:17;;;;;;;;;;;11.70;99.90;;;;;;5013839;28;19913;-72
2022/07/16 13:40:43;;;;;;;;;;;11.70;99.90;;;;;;5013715;28;19917;-72
2022/07/16 13:43:13;;;;;;;;;;;11.60;99.90;;;;;;5013604;28;19944;-72
2022/07/16 13:45:40;;;;;;;;;;;11.60;99.90;;;;;;5013791;28;20296;-72
2022/07/16 13:48:07;;;;;;;;;;;11.50;99.90;;;;;;5013782;28;20331;-72
2022/07/16 13:50:33;;;;;;;;;;;11.50;99.90;;;;;;5013519;28;19909;-72
2022/07/16 13:53:00;;;;;;;;;;;11.60;99.90;;;;;;4995482;28;20355;-73
2022/07/16 13:55:27;;;;;;;;;;;11.50;99.90;;;;;;5013578;28;20372;-72
2022/07/16 14:00:38;;;;;;;;;;;11.50;99.90;;;;;;5013930;28;19917;-73
2022/07/16 14:03:05;;;;;;;;;;;11.60;99.90;;;;;;5013422;28;19932;-72
2022/07/16 14:05:32;;;;;;;;;;;11.60;99.90;;;;;;5013419;28;20004;-72
2022/07/16 14:07:59;;;;;;;;;;;11.60;99.90;;;;;;5013507;28;19913;-72
2022/07/16 14:10:25;;;;;;;;;;;11.60;99.90;;;;;;5013538;28;19910;-72
2022/07/16 14:12:52;;;;;;;;;;;11.60;99.90;;;;;;5013364;28;20008;-74
2022/07/16 14:15:19;;;;;;;;;;;11.60;99.90;;;;;;5013461;28;19980;-72
2022/07/16 14:17:45;;;;;;;;;;;11.60;99.90;;;;;;5013503;28;19963;-72
2022/07/16 14:20:13;;;;;;;;;;;11.60;99.90;;;;;;5013241;28;20000;-73
2022/07/16 14:22:41;;;;;;;;;;;11.60;99.90;;;;;;5013471;28;19937;-74
2022/07/16 14:25:08;;;;;;;;;;;11.50;99.90;;;;;;5013052;28;19914;-72
2022/07/16 14:27:38;;;;;;;;;;;11.60;99.90;;;;;;5013287;28;20411;-72
2022/07/16 14:30:05;;;;;;;;;;;11.60;99.90;;;;;;5013272;28;19909;-72
2022/07/16 14:32:31;;;;;;;;;;;11.60;99.90;;;;;;5013393;28;19910;-72
2022/07/16 14:34:58;;;;;;;;;;;11.60;99.90;;;;;;5012822;28;20351;-72